createdAt,value
2022-08-02T00:00:00.193Z,65.79
2022-08-02T00:05:05.098Z,66.11
2022-08-02T00:10:10.129Z,66.39
2022-08-02T00:15:15.944Z,66.55
2022-08-02T00:20:20.812Z,66.46
2022-08-02T00:25:24.008Z,66.70
2022-08-02T00:30:27.006Z,66.21
2022-08-02T00:35:31.368Z,67.85
2022-08-02T00:40:34.555Z,67.44
2022-08-02T00:46:02.692Z,67.33
2022-08-02T00:51:04.484Z,67.88
2022-08-02T00:56:07.639Z,67.35
2022-08-02T01:01:10.693Z,67.80
2022-08-02T01:06:15.167Z,68.44
2022-08-02T01:11:18.167Z,69.18
2022-08-02T01:16:27.452Z,69.14
2022-08-02T01:21:46.649Z,69.49
2022-08-02T01:26:53.848Z,68.81
2022-08-02T01:32:05.349Z,68.46
2022-08-02T01:37:12.393Z,69.14
2022-08-02T01:42:17.247Z,68.63
2022-08-02T01:47:25.586Z,70.18
2022-08-02T01:52:31.985Z,70.36
2022-08-02T01:57:41.963Z,70.70
2022-08-02T02:02:49.110Z,70.47
2022-08-02T02:07:56.387Z,70.94
2022-08-02T02:13:03.736Z,70.54
2022-08-02T02:18:12.986Z,70.41
2022-08-02T02:23:17.431Z,71.34
2022-08-02T02:28:31.118Z,71.72
2022-08-02T02:33:39.544Z,70.43
2022-08-02T02:38:44.223Z,71.61
2022-08-02T02:43:48.553Z,73.45
2022-08-02T02:48:53.941Z,73.99
2022-08-02T02:54:32.083Z,71.65
2022-08-02T02:59:22.575Z,71.71
2022-08-02T03:04:36.121Z,71.36
2022-08-02T03:09:54.155Z,70.59
2022-08-02T03:14:59.697Z,70.89
2022-08-02T03:20:05.268Z,71.36
2022-08-02T03:25:09.622Z,70.76
2022-08-02T03:30:14.770Z,70.99
2022-08-02T03:35:24.173Z,71.41
2022-08-02T03:40:29.501Z,71.29
2022-08-02T03:45:32.900Z,71.21
2022-08-02T03:50:38.692Z,70.70
2022-08-02T03:55:41.959Z,71.65
2022-08-02T04:00:45.121Z,71.58
2022-08-02T04:06:03.585Z,74.96
2022-08-02T04:11:25.447Z,75.67
2022-08-02T04:16:40.014Z,73.87
2022-08-02T04:21:51.257Z,72.23
2022-08-02T04:26:57.832Z,74.03
2022-08-02T04:32:06.043Z,72.58
2022-08-02T04:37:10.473Z,71.03
2022-08-02T04:42:21.927Z,70.79
2022-08-02T04:47:54.257Z,70.40
2022-08-02T04:52:49.717Z,70.94
2022-08-02T04:57:58.795Z,71.03
2022-08-02T05:03:02.559Z,71.72
2022-08-02T05:08:07.111Z,71.89
2022-08-02T05:13:10.100Z,70.60
2022-08-02T05:18:13.035Z,71.33
2022-08-02T05:23:17.654Z,71.48
2022-08-02T05:28:20.655Z,69.74
2022-08-02T05:33:23.666Z,70.34
2022-08-02T05:38:31.127Z,69.52
2022-08-02T05:43:34.948Z,69.54
2022-08-02T05:48:38.847Z,69.10
2022-08-02T05:53:50.929Z,67.75
2022-08-02T05:58:57.994Z,67.05
2022-08-02T06:04:02.005Z,69.51
2022-08-02T06:09:11.007Z,68.84
2022-08-02T06:14:14.673Z,63.99
2022-08-02T06:19:19.814Z,60.15
2022-08-02T06:24:25.913Z,61.79
2022-08-02T06:29:35.656Z,59.73
2022-08-02T06:34:41.461Z,62.37
2022-08-02T06:39:50.106Z,64.20
2022-08-02T06:44:57.461Z,62.59
2022-08-02T06:50:01.271Z,58.87
2022-08-02T06:55:07.016Z,57.66
2022-08-02T07:00:11.377Z,52.79
2022-08-02T07:05:14.452Z,54.29
2022-08-02T07:10:18.967Z,53.69
2022-08-02T07:15:22.083Z,51.35
2022-08-02T07:20:25.293Z,49.06
2022-08-02T07:26:02.308Z,48.00
2022-08-02T07:30:52.868Z,51.10
2022-08-02T07:35:57.446Z,50.47
2022-08-02T07:41:01.817Z,48.37
2022-08-02T07:46:04.898Z,46.83
2022-08-02T07:51:07.878Z,46.89
2022-08-02T07:56:12.278Z,47.96
2022-08-02T08:01:15.334Z,50.42
2022-08-02T08:06:18.516Z,48.67
2022-08-02T08:11:22.881Z,49.60
2022-08-02T08:16:26.283Z,48.50
2022-08-02T08:21:29.663Z,47.11
2022-08-02T08:26:34.095Z,45.60
2022-08-02T08:31:37.967Z,43.99
2022-08-02T08:36:41.133Z,45.88
2022-08-02T08:41:45.563Z,44.88
2022-08-02T08:46:50.742Z,43.66
2022-08-02T08:51:56.975Z,45.04
2022-08-02T08:57:05.548Z,43.14
2022-08-02T09:02:19.515Z,42.05
2022-08-02T09:07:23.618Z,40.65
2022-08-02T09:12:28.008Z,39.49
2022-08-02T09:17:31.018Z,41.53
2022-08-02T09:22:34.546Z,38.66
2022-08-02T09:27:38.979Z,38.92
2022-08-02T09:32:46.584Z,42.26
2022-08-02T09:37:49.830Z,40.24
2022-08-02T09:43:00.580Z,43.09
2022-08-02T09:48:04.244Z,41.65
2022-08-02T09:53:12.201Z,40.22
2022-08-02T09:58:20.432Z,40.58
2022-08-02T10:03:25.273Z,41.33
2022-08-02T10:08:39.632Z,40.30
2022-08-02T10:13:44.548Z,36.43
2022-08-02T10:18:47.590Z,38.16
2022-08-02T10:23:51.499Z,38.51
2022-08-02T10:28:56.137Z,40.91
2022-08-02T10:34:02.465Z,40.55
2022-08-02T10:39:06.352Z,39.58
2022-08-02T10:44:24.475Z,41.20
2022-08-02T10:49:39.719Z,40.04
2022-08-02T10:54:45.641Z,36.64
2022-08-02T10:59:52.322Z,35.58
2022-08-02T11:05:07.979Z,40.97
2022-08-02T11:10:37.524Z,39.44
2022-08-02T11:15:54.164Z,36.63
2022-08-02T11:21:24.773Z,35.00
2022-08-02T11:26:44.587Z,36.60
2022-08-02T11:31:49.258Z,34.85
2022-08-02T11:36:54.636Z,36.77
2022-08-02T11:41:59.124Z,35.63
2022-08-02T11:47:03.950Z,36.55
2022-08-02T11:52:10.918Z,39.96
2022-08-02T11:57:19.731Z,38.88
2022-08-02T12:02:26.734Z,37.81
2022-08-02T12:07:34.766Z,40.50
2022-08-02T12:12:49.336Z,40.83
2022-08-02T12:18:10.878Z,39.51
2022-08-02T12:23:14.542Z,38.44
2022-08-02T12:28:20.481Z,38.48
2022-08-02T12:33:26.762Z,37.86
2022-08-02T12:38:29.744Z,35.64
2022-08-02T12:43:32.903Z,36.64
2022-08-02T12:48:48.149Z,36.84
2022-08-02T12:54:14.030Z,36.87
2022-08-02T12:59:38.588Z,36.89
2022-08-02T13:04:49.793Z,37.29
2022-08-02T13:10:02.600Z,35.42
2022-08-02T13:15:12.677Z,33.77
2022-08-02T13:20:31.929Z,32.90
2022-08-02T13:25:35.055Z,31.30
2022-08-02T13:30:38.481Z,30.53
2022-08-02T13:35:42.909Z,30.95
2022-08-02T13:41:04.561Z,31.67
2022-08-02T13:46:08.152Z,30.93
2022-08-02T13:51:14.914Z,30.84
2022-08-02T13:56:18.095Z,31.60
2022-08-02T14:01:21.158Z,31.96
2022-08-02T14:06:25.640Z,31.89
2022-08-02T14:11:30.946Z,33.24
2022-08-02T14:16:33.978Z,32.64
2022-08-02T14:21:47.029Z,32.97
2022-08-02T14:26:51.916Z,34.08
2022-08-02T14:31:54.961Z,34.66
2022-08-02T14:36:59.397Z,33.43
2022-08-02T14:42:02.551Z,33.91
2022-08-02T14:47:06.901Z,31.99
2022-08-02T14:52:13.210Z,32.42
2022-08-02T14:57:16.610Z,32.48
2022-08-02T15:02:19.619Z,31.91
2022-08-02T15:07:24.048Z,30.66
2022-08-02T15:12:27.011Z,31.60
2022-08-02T15:17:30.095Z,31.80
2022-08-02T15:22:34.633Z,31.07
2022-08-02T15:27:37.758Z,31.16
2022-08-02T15:32:52.427Z,31.48
2022-08-02T15:37:57.902Z,32.52
2022-08-02T15:43:00.908Z,32.95
2022-08-02T15:48:05.003Z,33.14
2022-08-02T15:53:09.373Z,32.33
2022-08-02T15:58:17.046Z,32.19
2022-08-02T16:03:21.053Z,31.52
2022-08-02T16:08:25.427Z,31.56
2022-08-02T16:13:53.493Z,32.76
2022-08-02T16:18:57.597Z,33.01
2022-08-02T16:24:03.413Z,33.29
2022-08-02T16:29:06.560Z,32.83
2022-08-02T16:34:09.926Z,33.60
2022-08-02T16:39:14.489Z,33.45
2022-08-02T16:44:17.578Z,33.47
2022-08-02T16:50:03.969Z,32.87
2022-08-02T16:54:45.023Z,34.22
2022-08-02T16:59:59.604Z,34.19
2022-08-02T17:05:02.833Z,34.13
2022-08-02T17:10:09.756Z,34.47
2022-08-02T17:20:36.354Z,34.94
2022-08-02T17:25:42.034Z,35.34
2022-08-02T17:30:45.543Z,35.31
2022-08-02T17:35:52.417Z,35.32
2022-08-02T17:40:57.658Z,35.80
2022-08-02T17:46:02.459Z,35.71
2022-08-02T17:51:05.770Z,35.47
2022-08-02T17:56:10.448Z,35.13
2022-08-02T18:01:23.859Z,36.50
2022-08-02T18:06:27.454Z,35.67
2022-08-02T18:11:51.730Z,36.80
2022-08-02T18:16:54.932Z,36.78
2022-08-02T18:21:57.979Z,39.43
2022-08-02T18:27:02.441Z,39.76
2022-08-02T18:32:11.801Z,39.55
2022-08-02T18:37:43.796Z,40.12
2022-08-02T18:42:52.074Z,40.53
2022-08-02T18:47:55.331Z,40.77
2022-08-02T18:52:59.712Z,41.14
2022-08-02T18:58:19.825Z,41.88
2022-08-02T19:03:23.964Z,41.87
2022-08-02T19:08:26.948Z,42.91
2022-08-02T19:13:31.489Z,42.62
2022-08-02T19:18:35.069Z,42.70
2022-08-02T19:23:54.621Z,43.38
2022-08-02T19:29:00.330Z,43.26
2022-08-02T19:34:12.173Z,43.67
2022-08-02T19:39:16.823Z,43.76
2022-08-02T19:44:29.318Z,44.25
2022-08-02T19:49:40.086Z,44.43
2022-08-02T19:54:55.874Z,44.35
2022-08-02T20:00:01.132Z,45.01
2022-08-02T20:05:16.074Z,45.35
2022-08-02T20:10:24.844Z,45.59
2022-08-02T20:15:56.052Z,46.30
2022-08-02T20:20:53.568Z,46.53
2022-08-02T20:25:56.614Z,46.94
2022-08-02T20:31:07.252Z,47.62
2022-08-02T20:36:12.144Z,47.76
2022-08-02T20:41:21.739Z,48.18
2022-08-02T20:46:26.540Z,48.58
2022-08-02T20:51:33.767Z,49.07
2022-08-02T20:56:37.543Z,49.13
2022-08-02T21:01:57.000Z,49.87
2022-08-02T21:07:00.654Z,49.80
2022-08-02T21:12:03.679Z,49.37
2022-08-02T21:17:11.209Z,50.93
2022-08-02T21:22:27.729Z,50.92
2022-08-02T21:27:53.241Z,50.84
2022-08-02T21:32:56.940Z,51.21
2022-08-02T21:38:00.028Z,51.32
2022-08-02T21:43:02.997Z,52.08
2022-08-02T21:48:13.362Z,52.08
2022-08-02T21:53:29.214Z,52.41
2022-08-02T21:58:39.611Z,52.94
2022-08-02T22:09:17.668Z,53.40
2022-08-02T22:14:23.507Z,53.69
2022-08-02T22:19:28.069Z,54.45
2022-08-02T22:24:31.593Z,54.63
2022-08-02T22:29:34.567Z,55.06
2022-08-02T22:34:52.303Z,55.50
2022-08-02T22:40:08.596Z,55.77
2022-08-02T22:45:12.701Z,55.42
2022-08-02T22:50:17.104Z,55.96
2022-08-02T22:55:21.457Z,56.55
2022-08-02T22:58:48.967Z,34.35
2022-08-02T22:59:12.505Z,53.23
2022-08-02T23:00:26.833Z,55.98
2022-08-02T23:05:31.589Z,56.61
2022-08-02T23:10:34.813Z,56.74
2022-08-02T23:15:53.556Z,57.58
2022-08-02T23:20:58.708Z,57.83
2022-08-02T23:26:01.695Z,57.93
2022-08-02T23:31:28.917Z,57.62
2022-08-02T23:36:33.921Z,58.02
2022-08-02T23:41:36.932Z,58.46
2022-08-02T23:46:42.154Z,59.02
2022-08-02T23:51:46.898Z,58.53
2022-08-02T23:56:49.992Z,59.11
